LFBA/AGF METAR and TAF weather

Enter ICAO airport designator
Station Type Date Time Source
LFBA METAR 2021/09/25 13:00 UTC NOAA

LFBA 251300Z AUTO 12005KT 080V160 CAVOK 26/18 Q1014 NOSIG


Station Type Date Time Source
LFBA Decoded METAR 2021/09/25 13:00 UTC NOAA

Agen, France (LFBA) 44-11N 000-36E 60M
Sep 25, 2021 - 09:00 AM EDT / 2021.09.25 1300 UTC
Wind: from the ESE (120 degrees) at 6 MPH (5 KT) (direction variable):0
Visibility: greater than 7 mile(s):0
Temperature: 78 F (26 C)
Dew Point: 64 F (18 C)
Relative Humidity: 61%
Pressure (altimeter): 29.94 in. Hg (1014 hPa)
ob: LFBA 251300Z AUTO 12005KT 080V160 CAVOK 26/18 Q1014 NOSIG
cycle: 13

Station Type Date Time Source
LFBA TAF 2014/12/22 20:03 UTC NOAA

TAF
AMD TAF
AMD LFBA 222037Z 2220/2224 12007KT 0400 FG VV///
TEMPO 2220/2224 0100 PROB30
TEMPO 2222/2224 FZFG

Example: see airport list